createdAt,value
2023-01-09T00:00:09.411Z,13.30
2023-01-09T00:02:40.662Z,40.43
2023-01-09T00:05:11.827Z,10.67
2023-01-09T00:07:40.517Z,8.23
2023-01-09T00:10:10.506Z,5.53
2023-01-09T00:12:39.237Z,5.10
2023-01-09T00:15:09.228Z,4.40
2023-01-09T00:17:37.952Z,4.70
2023-01-09T00:20:09.478Z,4.90
2023-01-09T00:22:39.433Z,5.20
2023-01-09T00:25:08.885Z,4.47
2023-01-09T00:27:38.064Z,4.10
2023-01-09T00:30:08.195Z,4.90
2023-01-09T00:32:36.889Z,3.90
2023-01-09T00:35:06.291Z,4.70
2023-01-09T00:37:35.984Z,3.90
2023-01-09T00:40:06.815Z,4.80
2023-01-09T00:42:36.549Z,4.67
2023-01-09T00:45:08.870Z,4.93
2023-01-09T00:47:42.867Z,5.27
2023-01-09T00:50:14.683Z,4.87
2023-01-09T00:52:43.906Z,5.20
2023-01-09T00:55:14.038Z,4.90
2023-01-09T00:57:42.707Z,4.93
2023-01-09T01:00:12.491Z,5.33
2023-01-09T01:02:41.179Z,5.00
2023-01-09T01:05:28.022Z,5.80
2023-01-09T01:07:56.662Z,5.10
2023-01-09T01:10:27.366Z,4.67
2023-01-09T01:12:56.355Z,5.03
2023-01-09T01:15:29.239Z,5.63
2023-01-09T01:17:58.007Z,5.30
2023-01-09T01:20:26.671Z,4.90
2023-01-09T01:22:55.371Z,5.80
2023-01-09T01:25:25.788Z,5.60
2023-01-09T01:27:55.656Z,4.70
2023-01-09T01:30:24.293Z,4.57
2023-01-09T01:32:52.942Z,5.10
2023-01-09T01:35:22.500Z,5.13
2023-01-09T01:37:51.198Z,4.43
2023-01-09T01:40:19.833Z,4.57
2023-01-09T01:42:51.066Z,4.43
2023-01-09T01:45:20.884Z,4.13
2023-01-09T01:47:55.986Z,3.70
2023-01-09T01:50:28.968Z,3.33
2023-01-09T01:53:03.638Z,3.37
2023-01-09T01:55:32.554Z,3.80
2023-01-09T01:58:05.307Z,3.20
2023-01-09T02:00:36.456Z,3.47
2023-01-09T02:03:05.392Z,2.90
2023-01-09T02:05:34.456Z,2.80
2023-01-09T02:08:03.042Z,2.93
2023-01-09T02:10:31.794Z,2.70
2023-01-09T02:13:02.003Z,3.60
2023-01-09T02:15:36.317Z,3.10
2023-01-09T02:18:33.080Z,3.20
2023-01-09T02:21:03.779Z,3.03
2023-01-09T02:24:03.388Z,3.80
2023-01-09T02:27:04.470Z,1.33
2023-01-09T02:30:11.612Z,2.13
2023-01-09T02:32:50.514Z,1.90
2023-01-09T02:35:26.649Z,2.03
2023-01-09T02:38:05.078Z,1.60
2023-01-09T02:40:36.601Z,1.40
2023-01-09T02:43:06.289Z,1.40
2023-01-09T02:45:36.303Z,1.10
2023-01-09T02:48:05.279Z,1.27
2023-01-09T02:50:38.091Z,1.30
2023-01-09T02:53:28.981Z,0.90
2023-01-09T02:56:07.386Z,1.00
2023-01-09T02:58:57.596Z,0.90
2023-01-09T03:01:34.211Z,0.67
2023-01-09T03:04:05.839Z,0.90
2023-01-09T03:06:39.326Z,0.60
2023-01-09T03:09:10.009Z,0.60
2023-01-09T03:11:43.630Z,0.50
2023-01-09T03:14:15.738Z,0.50
2023-01-09T03:16:48.078Z,0.50
2023-01-09T03:19:17.890Z,0.60
2023-01-09T03:21:47.610Z,0.60
2023-01-09T03:24:16.226Z,0.50
2023-01-09T03:26:45.064Z,0.60
2023-01-09T03:29:13.669Z,0.50
2023-01-09T03:31:42.303Z,0.50
2023-01-09T03:34:12.299Z,0.60
2023-01-09T03:36:41.278Z,0.57
2023-01-09T03:39:09.836Z,0.43
2023-01-09T03:41:38.429Z,0.50
2023-01-09T03:44:07.014Z,0.50
2023-01-09T03:46:35.687Z,0.43
2023-01-09T03:49:04.327Z,0.50
2023-01-09T03:51:34.247Z,0.40
2023-01-09T03:54:02.851Z,0.70
2023-01-09T03:56:31.414Z,0.50
2023-01-09T03:59:00.066Z,0.50
2023-01-09T04:01:28.737Z,0.60
2023-01-09T04:03:57.431Z,0.53
2023-01-09T04:06:26.097Z,0.57
2023-01-09T04:08:56.228Z,0.60
2023-01-09T04:11:24.789Z,0.50
2023-01-09T04:13:53.390Z,0.60
2023-01-09T04:16:22.067Z,0.70
2023-01-09T04:18:50.651Z,0.50
2023-01-09T04:21:19.242Z,0.80
2023-01-09T04:23:47.867Z,0.57
2023-01-09T04:26:17.833Z,0.80
2023-01-09T04:28:46.474Z,0.60
2023-01-09T04:31:15.085Z,0.60
2023-01-09T04:33:43.783Z,0.50
2023-01-09T04:36:12.592Z,0.50
2023-01-09T04:38:41.224Z,0.53
2023-01-09T04:41:09.848Z,0.50
2023-01-09T04:43:42.120Z,0.50
2023-01-09T04:46:10.757Z,0.50
2023-01-09T04:48:39.307Z,0.50
2023-01-09T04:51:07.900Z,0.60
2023-01-09T04:53:36.481Z,0.40
2023-01-09T04:56:05.416Z,0.47
2023-01-09T04:58:33.990Z,0.40
2023-01-09T05:01:04.104Z,0.50
2023-01-09T05:03:32.754Z,0.40
2023-01-09T05:06:01.342Z,0.50
2023-01-09T05:08:30.013Z,0.50
2023-01-09T05:10:58.606Z,0.50
2023-01-09T05:13:27.224Z,0.50
2023-01-09T05:15:55.866Z,0.50
2023-01-09T05:18:25.858Z,0.47
2023-01-09T05:20:54.446Z,0.50
2023-01-09T05:23:23.048Z,0.70
2023-01-09T05:25:51.609Z,0.70
2023-01-09T05:28:20.214Z,0.63
2023-01-09T05:30:48.854Z,0.50
2023-01-09T05:33:17.438Z,0.40
2023-01-09T05:35:47.403Z,0.50
2023-01-09T05:38:16.046Z,0.40
2023-01-09T05:40:44.664Z,0.60
2023-01-09T05:43:13.871Z,0.63
2023-01-09T05:45:42.611Z,0.47
2023-01-09T05:48:11.449Z,0.50
2023-01-09T05:50:40.083Z,0.50
2023-01-09T05:53:10.089Z,0.57
2023-01-09T05:55:38.651Z,0.60
2023-01-09T05:58:07.242Z,0.40
2023-01-09T06:00:35.871Z,0.50
2023-01-09T06:03:04.805Z,0.50
2023-01-09T06:05:33.801Z,0.57
2023-01-09T06:08:02.444Z,0.60
2023-01-09T06:10:32.363Z,0.50
2023-01-09T06:13:00.918Z,0.57
2023-01-09T06:15:29.534Z,0.80
2023-01-09T06:17:58.198Z,0.77
2023-01-09T06:20:26.859Z,0.60
2023-01-09T06:22:55.452Z,0.70
2023-01-09T06:25:24.162Z,0.70
2023-01-09T06:27:54.085Z,0.60
2023-01-09T06:30:22.957Z,0.67
2023-01-09T06:32:51.623Z,0.70
2023-01-09T06:35:22.224Z,0.50
2023-01-09T06:37:51.166Z,0.63
2023-01-09T06:40:21.142Z,0.50
2023-01-09T06:42:50.370Z,0.50
2023-01-09T06:45:20.375Z,0.70
2023-01-09T06:47:50.126Z,0.80
2023-01-09T06:50:19.335Z,0.70
2023-01-09T06:52:47.966Z,0.70
2023-01-09T06:55:17.753Z,0.50
2023-01-09T06:57:46.377Z,0.70
2023-01-09T07:00:15.683Z,0.70
2023-01-09T07:02:45.701Z,1.10
2023-01-09T07:05:14.463Z,1.30
2023-01-09T07:07:43.218Z,1.20
2023-01-09T07:10:12.749Z,1.20
2023-01-09T07:12:41.345Z,1.10
2023-01-09T07:15:10.697Z,1.00
2023-01-09T07:17:39.383Z,0.90
2023-01-09T07:20:11.049Z,1.10
2023-01-09T07:22:39.778Z,0.97
2023-01-09T07:25:09.044Z,0.90
2023-01-09T07:27:38.040Z,1.10
2023-01-09T07:30:08.110Z,1.33
2023-01-09T07:32:38.495Z,1.50
2023-01-09T07:35:09.604Z,1.50
2023-01-09T07:37:38.224Z,1.93
2023-01-09T07:40:08.179Z,1.00
2023-01-09T07:42:36.847Z,1.13
2023-01-09T07:45:06.498Z,1.40
2023-01-09T07:47:35.167Z,1.30
2023-01-09T07:50:03.926Z,1.20
2023-01-09T07:52:33.909Z,0.97
2023-01-09T07:55:02.606Z,1.00
2023-01-09T07:57:31.268Z,1.07
2023-01-09T08:00:01.093Z,1.13
2023-01-09T08:02:29.839Z,1.27
2023-01-09T08:04:58.449Z,0.80
2023-01-09T08:07:27.080Z,0.93
2023-01-09T08:09:57.075Z,1.00
2023-01-09T08:12:25.695Z,1.03
2023-01-09T08:14:54.383Z,0.90
2023-01-09T08:17:24.360Z,1.10
2023-01-09T08:19:53.779Z,0.70
2023-01-09T08:22:22.511Z,0.97
2023-01-09T08:24:51.157Z,0.60
2023-01-09T08:27:21.459Z,0.80
2023-01-09T08:29:50.104Z,1.47
2023-01-09T08:32:18.728Z,1.50
2023-01-09T08:34:47.548Z,1.63
2023-01-09T08:37:16.295Z,0.90
2023-01-09T08:39:44.976Z,1.00
2023-01-09T08:42:31.039Z,1.00
2023-01-09T08:45:18.489Z,0.90
2023-01-09T08:47:47.193Z,1.03
2023-01-09T08:50:16.060Z,0.87
2023-01-09T08:52:44.686Z,0.87
2023-01-09T08:55:13.299Z,1.40
2023-01-09T08:57:48.677Z,0.90
2023-01-09T09:00:20.737Z,0.80
2023-01-09T09:02:51.996Z,1.13
2023-01-09T09:05:21.839Z,0.90
2023-01-09T09:07:51.031Z,0.83
2023-01-09T09:10:19.839Z,0.70
2023-01-09T09:12:50.135Z,0.80
2023-01-09T09:15:24.016Z,0.70
2023-01-09T09:17:54.597Z,0.90
2023-01-09T09:20:24.090Z,0.60
2023-01-09T09:22:53.324Z,1.23
2023-01-09T09:25:22.452Z,1.00
2023-01-09T09:27:51.256Z,0.73
2023-01-09T09:30:21.719Z,1.17
2023-01-09T09:32:50.612Z,0.80
2023-01-09T09:35:20.965Z,0.77
2023-01-09T09:37:56.904Z,0.80
2023-01-09T09:40:39.359Z,0.70
2023-01-09T09:43:42.091Z,0.80
2023-01-09T09:46:18.240Z,0.70
2023-01-09T09:48:51.100Z,0.90
2023-01-09T09:51:43.946Z,0.80
2023-01-09T09:54:16.167Z,0.87
2023-01-09T09:56:48.907Z,1.23
2023-01-09T09:59:19.645Z,0.90
2023-01-09T10:01:53.942Z,1.07
2023-01-09T10:04:25.192Z,0.97
2023-01-09T10:06:56.252Z,1.17
2023-01-09T10:09:33.900Z,0.87
2023-01-09T10:12:05.321Z,0.90
2023-01-09T10:14:34.005Z,0.77
2023-01-09T10:17:14.021Z,0.83
2023-01-09T10:20:08.044Z,0.93
2023-01-09T10:22:44.998Z,1.03
2023-01-09T10:25:22.978Z,1.00
2023-01-09T10:28:02.066Z,1.17
2023-01-09T10:30:39.162Z,0.60
2023-01-09T10:33:25.002Z,0.87
2023-01-09T10:36:31.972Z,1.07
2023-01-09T10:39:04.226Z,0.80
2023-01-09T10:41:36.239Z,1.00
2023-01-09T10:44:09.221Z,0.90
2023-01-09T10:46:42.970Z,0.80
2023-01-09T10:49:15.446Z,0.80
2023-01-09T10:51:47.915Z,0.80
2023-01-09T10:54:20.037Z,0.70
2023-01-09T10:56:55.309Z,1.10
2023-01-09T10:59:24.374Z,0.93
2023-01-09T11:01:53.155Z,1.63
2023-01-09T11:04:26.684Z,0.93
2023-01-09T11:06:59.859Z,1.20
2023-01-09T11:09:28.548Z,1.70
2023-01-09T11:11:57.208Z,0.83
2023-01-09T11:14:31.236Z,1.03
2023-01-09T11:17:01.304Z,1.03
2023-01-09T11:19:33.245Z,0.70
2023-01-09T11:22:09.721Z,0.80
2023-01-09T11:24:38.369Z,1.30
2023-01-09T11:27:34.143Z,1.00
2023-01-09T11:30:16.614Z,1.17
2023-01-09T11:32:46.397Z,2.00
2023-01-09T11:35:28.141Z,0.90
2023-01-09T11:38:04.505Z,0.80
2023-01-09T11:40:37.721Z,1.10
2023-01-09T11:43:14.221Z,0.90
2023-01-09T11:46:00.221Z,0.90
2023-01-09T11:48:33.813Z,0.90
2023-01-09T11:51:06.804Z,1.10
2023-01-09T11:54:00.002Z,0.80
2023-01-09T11:56:28.826Z,0.90
2023-01-09T11:58:57.462Z,1.13
2023-01-09T12:01:43.864Z,2.23
2023-01-09T12:04:21.086Z,1.27
2023-01-09T12:07:07.949Z,1.00
2023-01-09T12:09:40.464Z,0.70
2023-01-09T12:12:18.862Z,0.93
2023-01-09T12:14:57.578Z,1.03
2023-01-09T12:17:50.464Z,0.90
2023-01-09T12:20:38.410Z,2.13
2023-01-09T12:23:21.843Z,1.00
2023-01-09T12:25:55.774Z,0.77
2023-01-09T12:28:40.432Z,0.80
2023-01-09T12:31:18.427Z,1.20
2023-01-09T12:33:55.482Z,1.07
2023-01-09T12:36:28.392Z,1.17
2023-01-09T12:39:02.277Z,1.17
2023-01-09T12:41:48.987Z,1.10
2023-01-09T12:44:35.676Z,0.80
2023-01-09T12:47:18.757Z,0.90
2023-01-09T12:49:53.649Z,1.83
2023-01-09T12:52:25.301Z,0.90
2023-01-09T12:54:59.503Z,0.90
2023-01-09T12:57:32.616Z,0.93
2023-01-09T13:00:05.385Z,0.83
2023-01-09T13:02:36.728Z,0.90
2023-01-09T13:05:10.965Z,0.97
2023-01-09T13:07:42.612Z,0.90
2023-01-09T13:10:19.617Z,0.80
2023-01-09T13:12:49.467Z,0.97
2023-01-09T13:15:27.321Z,1.27
2023-01-09T13:17:58.844Z,1.03
2023-01-09T13:20:35.093Z,0.83
2023-01-09T13:23:04.127Z,1.33
2023-01-09T13:25:41.632Z,0.83
2023-01-09T13:28:17.065Z,0.73
2023-01-09T13:31:06.775Z,1.00
2023-01-09T13:33:37.378Z,1.20
2023-01-09T13:36:06.613Z,1.63
2023-01-09T13:38:36.328Z,0.80
2023-01-09T13:41:29.846Z,0.70
2023-01-09T13:44:00.127Z,0.80
2023-01-09T13:46:40.655Z,0.80
2023-01-09T13:49:30.754Z,0.80
2023-01-09T13:52:03.970Z,0.90
2023-01-09T13:55:05.111Z,0.80
2023-01-09T13:57:36.745Z,0.80
2023-01-09T14:00:42.937Z,0.73
2023-01-09T14:03:20.489Z,0.60
2023-01-09T14:06:18.513Z,1.00
2023-01-09T14:08:49.219Z,0.90
2023-01-09T14:11:27.251Z,0.60
2023-01-09T14:14:03.784Z,0.60
2023-01-09T14:16:33.217Z,0.90
2023-01-09T14:19:06.090Z,0.60
2023-01-09T14:21:46.783Z,0.50
2023-01-09T14:24:22.207Z,0.47
2023-01-09T14:26:55.256Z,0.70
2023-01-09T14:29:48.525Z,0.60
2023-01-09T14:32:44.830Z,0.50
2023-01-09T14:35:41.964Z,0.50
2023-01-09T14:38:21.441Z,0.60
2023-01-09T14:40:54.428Z,0.80
2023-01-09T14:43:27.815Z,0.67
2023-01-09T14:46:05.591Z,0.87
2023-01-09T14:48:35.152Z,0.60
2023-01-09T14:51:08.350Z,0.60
2023-01-09T14:53:39.511Z,0.70
2023-01-09T14:56:25.485Z,0.70
2023-01-09T14:59:05.169Z,0.60
2023-01-09T15:01:36.917Z,1.00
2023-01-09T15:04:07.758Z,1.00
2023-01-09T15:06:37.580Z,1.00
2023-01-09T15:09:09.134Z,1.00
2023-01-09T15:11:40.383Z,0.73
2023-01-09T15:14:13.852Z,0.90
2023-01-09T15:16:46.182Z,0.70
2023-01-09T15:19:15.875Z,1.27
2023-01-09T15:21:57.535Z,1.50
2023-01-09T15:24:29.664Z,1.50
2023-01-09T15:26:59.897Z,1.30
2023-01-09T15:29:28.979Z,1.30
2023-01-09T15:32:02.967Z,1.10
2023-01-09T15:34:31.737Z,1.40
2023-01-09T15:37:00.809Z,0.60
2023-01-09T15:39:32.539Z,1.07
2023-01-09T15:42:18.901Z,0.70
2023-01-09T15:44:50.131Z,1.13
2023-01-09T15:47:23.083Z,1.10
2023-01-09T15:49:52.180Z,1.10
2023-01-09T15:52:22.186Z,0.87
2023-01-09T15:54:50.821Z,0.87
2023-01-09T15:57:30.869Z,1.20
2023-01-09T16:00:33.232Z,1.20
2023-01-09T16:03:12.011Z,1.10
2023-01-09T16:05:41.435Z,0.80
2023-01-09T16:08:21.815Z,0.80
2023-01-09T16:10:52.093Z,0.80
2023-01-09T16:13:22.869Z,1.20
2023-01-09T16:15:52.172Z,0.60
2023-01-09T16:18:24.712Z,0.60
2023-01-09T16:21:03.072Z,0.60
2023-01-09T16:23:33.992Z,0.50
2023-01-09T16:26:07.868Z,0.67
2023-01-09T16:28:40.666Z,0.70
2023-01-09T16:31:20.619Z,0.70
2023-01-09T16:33:55.381Z,0.70
2023-01-09T16:36:24.002Z,0.70
2023-01-09T16:38:53.608Z,1.00
2023-01-09T16:41:40.685Z,1.00
2023-01-09T16:44:10.634Z,1.57
2023-01-09T16:46:43.303Z,1.70
2023-01-09T16:49:21.473Z,1.10
2023-01-09T16:51:50.395Z,1.53
2023-01-09T16:54:19.173Z,1.00
2023-01-09T16:56:49.500Z,1.03
2023-01-09T16:59:21.021Z,1.10
2023-01-09T17:01:49.811Z,0.90
2023-01-09T17:04:20.630Z,2.00
2023-01-09T17:06:49.983Z,2.00
2023-01-09T17:09:20.079Z,1.20
2023-01-09T17:11:48.734Z,1.60
2023-01-09T17:14:17.497Z,1.10
2023-01-09T17:16:46.785Z,0.90
2023-01-09T17:19:20.402Z,1.00
2023-01-09T17:21:49.067Z,0.80
2023-01-09T17:24:35.158Z,0.90
2023-01-09T17:27:21.645Z,1.10
2023-01-09T17:29:50.287Z,1.17
2023-01-09T17:32:19.520Z,0.90
2023-01-09T17:34:49.632Z,1.03
2023-01-09T17:37:19.537Z,1.00
2023-01-09T17:39:48.248Z,0.77
2023-01-09T17:42:16.932Z,0.90
2023-01-09T17:44:45.565Z,1.00
2023-01-09T17:47:15.848Z,1.17
2023-01-09T17:49:44.453Z,1.33
2023-01-09T17:52:14.462Z,1.00
2023-01-09T17:54:43.105Z,1.20
2023-01-09T17:57:15.382Z,1.20
2023-01-09T17:59:44.869Z,0.80
2023-01-09T18:02:17.906Z,0.90
2023-01-09T18:04:46.716Z,1.33
2023-01-09T18:07:17.373Z,1.20
2023-01-09T18:09:46.254Z,1.00
2023-01-09T18:12:15.070Z,1.10
2023-01-09T18:14:44.077Z,1.40
2023-01-09T18:17:13.074Z,1.30
2023-01-09T18:19:42.115Z,0.97
2023-01-09T18:22:10.804Z,0.93
2023-01-09T18:24:41.422Z,0.90
2023-01-09T18:27:10.028Z,0.80
2023-01-09T18:29:38.688Z,0.90
2023-01-09T18:32:07.386Z,0.70
2023-01-09T18:34:36.167Z,0.80
2023-01-09T18:37:05.469Z,0.90
2023-01-09T18:39:34.130Z,0.70
2023-01-09T18:42:04.119Z,0.73
2023-01-09T18:44:32.819Z,1.17
2023-01-09T18:47:02.055Z,0.90
2023-01-09T18:49:30.750Z,0.90
2023-01-09T18:51:59.866Z,0.90
2023-01-09T18:54:28.483Z,0.80
2023-01-09T18:56:57.203Z,1.00
2023-01-09T18:59:27.228Z,1.00
2023-01-09T19:01:55.879Z,0.90
2023-01-09T19:04:24.568Z,0.80
2023-01-09T19:06:56.054Z,1.50
2023-01-09T19:09:25.038Z,1.00
2023-01-09T19:11:53.687Z,1.17
2023-01-09T19:14:22.272Z,1.20
2023-01-09T19:16:54.398Z,1.40
2023-01-09T19:19:23.105Z,0.93
2023-01-09T19:21:51.745Z,0.77
2023-01-09T19:24:21.158Z,0.80
2023-01-09T19:26:49.883Z,0.80
2023-01-09T19:29:18.797Z,0.90
2023-01-09T19:31:48.611Z,0.90
2023-01-09T19:34:18.873Z,0.90
2023-01-09T19:36:48.273Z,0.80
2023-01-09T19:39:17.091Z,1.00
2023-01-09T19:41:45.703Z,1.10
2023-01-09T19:44:14.365Z,1.00
2023-01-09T19:46:42.998Z,0.90
2023-01-09T19:49:11.646Z,0.70
2023-01-09T19:51:42.396Z,0.80
2023-01-09T19:54:11.902Z,0.70
2023-01-09T19:56:43.943Z,1.00
2023-01-09T19:59:13.537Z,1.00
2023-01-09T20:01:42.504Z,0.83
2023-01-09T20:04:14.994Z,0.90
2023-01-09T20:06:46.317Z,0.77
2023-01-09T20:09:17.010Z,1.77
2023-01-09T20:11:45.831Z,0.70
2023-01-09T20:14:15.138Z,1.02
2023-01-09T20:16:44.310Z,0.90
2023-01-09T20:19:14.163Z,0.80
2023-01-09T20:21:43.237Z,1.17
2023-01-09T20:24:14.924Z,1.07
2023-01-09T20:26:43.613Z,1.00
2023-01-09T20:29:12.660Z,1.00
2023-01-09T20:31:41.364Z,0.97
2023-01-09T20:34:11.070Z,0.73
2023-01-09T20:36:39.877Z,0.90
2023-01-09T20:39:10.576Z,0.90
2023-01-09T20:41:40.905Z,0.90
2023-01-09T20:44:13.027Z,0.80
2023-01-09T20:46:43.064Z,0.87
2023-01-09T20:49:14.088Z,1.20
2023-01-09T20:51:44.147Z,0.87
2023-01-09T20:54:13.426Z,0.90
2023-01-09T20:56:43.582Z,0.80
2023-01-09T20:59:13.443Z,0.90
2023-01-09T21:01:42.014Z,0.73
2023-01-09T21:04:10.865Z,0.90
2023-01-09T21:06:39.634Z,0.80
2023-01-09T21:09:08.436Z,1.10
2023-01-09T21:11:37.157Z,0.80
2023-01-09T21:14:07.146Z,0.60
2023-01-09T21:16:35.887Z,0.90
2023-01-09T21:19:04.558Z,0.70
2023-01-09T21:21:33.216Z,0.70
2023-01-09T21:24:02.265Z,0.80
2023-01-09T21:26:31.137Z,0.90
2023-01-09T21:29:02.811Z,1.00
2023-01-09T21:31:35.063Z,0.60
2023-01-09T21:34:05.557Z,0.90
2023-01-09T21:36:35.094Z,0.90
2023-01-09T21:39:07.682Z,1.00
2023-01-09T21:41:54.490Z,1.30
2023-01-09T21:44:40.758Z,1.17
2023-01-09T21:47:10.909Z,1.00
2023-01-09T21:49:41.403Z,1.20
2023-01-09T21:52:10.571Z,2.90
2023-01-09T21:54:39.662Z,1.77
2023-01-09T21:57:09.135Z,4.70
2023-01-09T21:59:37.792Z,3.70
2023-01-09T22:02:06.495Z,2.50
2023-01-09T22:04:36.473Z,2.20
2023-01-09T22:07:05.116Z,1.60
2023-01-09T22:09:33.811Z,1.07
2023-01-09T22:12:02.463Z,1.23
2023-01-09T22:14:31.140Z,1.80
2023-01-09T22:16:59.792Z,1.80
2023-01-09T22:19:28.454Z,1.60
2023-01-09T22:21:59.782Z,1.30
2023-01-09T22:24:28.389Z,1.10
2023-01-09T22:26:57.006Z,1.50
2023-01-09T22:29:25.845Z,1.23
2023-01-09T22:31:54.541Z,1.20
2023-01-09T22:34:23.369Z,1.23
2023-01-09T22:36:52.029Z,1.63
2023-01-09T22:39:22.004Z,1.27
2023-01-09T22:41:52.345Z,1.60
2023-01-09T22:44:21.033Z,1.50
2023-01-09T22:46:49.664Z,1.30
2023-01-09T22:49:18.323Z,1.73
2023-01-09T22:51:47.039Z,1.40
2023-01-09T22:54:15.794Z,0.77
2023-01-09T22:56:45.764Z,1.00
2023-01-09T22:59:14.339Z,1.13
2023-01-09T23:01:43.002Z,1.30
2023-01-09T23:04:13.330Z,1.23
2023-01-09T23:06:41.914Z,1.20
2023-01-09T23:09:10.932Z,1.30
2023-01-09T23:11:57.131Z,1.40
2023-01-09T23:14:27.077Z,1.70
2023-01-09T23:16:56.313Z,1.43
2023-01-09T23:19:25.011Z,1.20
2023-01-09T23:21:53.658Z,0.93
2023-01-09T23:24:22.282Z,1.10
2023-01-09T23:26:52.173Z,1.20
2023-01-09T23:29:20.895Z,0.80
2023-01-09T23:31:53.478Z,1.20
2023-01-09T23:34:24.263Z,1.00
2023-01-09T23:36:53.466Z,1.00
2023-01-09T23:39:22.192Z,1.13
2023-01-09T23:42:08.548Z,1.00
2023-01-09T23:44:37.153Z,1.10
2023-01-09T23:47:07.286Z,1.20
2023-01-09T23:49:35.976Z,0.80
2023-01-09T23:52:06.184Z,0.83
2023-01-09T23:54:34.966Z,0.93
2023-01-09T23:57:03.616Z,0.70
2023-01-09T23:59:32.352Z,0.70
